Champion — WCZ7631 — position and weather

sailwx.info

Track history (hours):
 
Tides and Currents Weather Stations Pressure Air Temp Water Temp Dewpoint Dewpoint Depression Visibility Wind Speed Wind Dir Waves Ship Positions

Champion

Owner: MC CULLEY MARINE SERVICES INC, FORT PIERCE, FL. More information available from US FCC via Universal Licensing System and Coast Guard Vessel Documentation Center.

Last reported at 2016-May-03 21:33 UTC. Time now 2016-May-06 09:20 UTC.
Position N 28°12' W 080°39'.

Length 20 m; draft 1.7 m.

Type: Towing. MMSI: 367005250.

Date/timePositionNaut miles runAvg speedWind from/ knotsBaromVisibWave heightAir tempDewpointWater temp
2016-May-03 21:33N 28°12' W 080°39'  
2016-Apr-30 22:07N 26°43' W 081°33'3 5.9
2016-Apr-30 21:33N 26°43' W 081°36'5 4.8
2016-Apr-30 20:28N 26°43' W 081°42'6 5.9
2016-Apr-30 19:32N 26°42' W 081°48'6 6.0
2016-Apr-30 18:33N 26°38' W 081°53'6 6.3
2016-Apr-30 17:33N 26°33' W 081°56'6 6.1
2016-Apr-30 16:33N 26°30' W 082°02'6 5.5
2016-Apr-30 15:33N 26°30' W 082°08'6 5.8
2016-Apr-30 14:33N 26°35' W 082°11'6 5.8
2016-Apr-30 13:33N 26°40' W 082°13'3 2.6
2016-Apr-30 12:33N 26°43' W 082°14'59 4.7
2016-Apr-30 00:06N 27°37' W 082°40'7 4.1
2016-Apr-29 22:31N 27°43' W 082°37'6 5.8
2016-Apr-29 21:33N 27°48' W 082°34'6 5.6
2016-Apr-29 20:33N 27°53' W 082°32'0 0.4
2016-Apr-29 19:33N 27°53' W 082°32'0 0.3
2016-Apr-29 18:33N 27°53' W 082°32'7 7.4
2016-Apr-29 17:33N 27°46' W 082°36'8 6.8
2016-Apr-29 16:25N 27°39' W 082°34'15 4.8
2016-Apr-29 13:15N 27°26' W 082°43'11 6.0
2016-Apr-29 11:25N 27°37' W 082°40'5 6.1
2016-Apr-29 10:33N 27°39' W 082°34'1 1.3
2016-Apr-29 09:33N 27°39' W 082°35'  
2016-Apr-27 02:13N 28°19' W 082°56'43 6.5
2016-Apr-26 19:33N 27°39' W 082°37'2 2.2
2016-Apr-26 18:33N 27°39' W 082°34'  
2016-Apr-24 12:16N 27°39' W 082°36'2 1.8
2016-Apr-24 11:10N 27°38' W 082°34'  
Track history (hours):
 
Tides and Currents Weather Stations Pressure Air Temp Water Temp Dewpoint Dewpoint Depression Visibility Wind Speed Wind Dir Waves Ship Positions

Champion

Owner: MC CULLEY MARINE SERVICES INC, FORT PIERCE, FL. More information available from US FCC via Universal Licensing System and Coast Guard Vessel Documentation Center.

Last reported at 2016-May-03 21:33 UTC. Time now 2016-May-06 09:20 UTC.
Position N 28°12' W 080°39'.

Length 20 m; draft 1.7 m.

Type: Towing. MMSI: 367005250.

Date/timePositionNaut miles runAvg speedWind from/ knotsBaromVisibWave heightAir tempDewpointWater temp
2016-May-03 21:33N 28°12' W 080°39'  
2016-Apr-30 22:07N 26°43' W 081°33'3 5.9
2016-Apr-30 21:33N 26°43' W 081°36'5 4.8
2016-Apr-30 20:28N 26°43' W 081°42'6 5.9
2016-Apr-30 19:32N 26°42' W 081°48'6 6.0
2016-Apr-30 18:33N 26°38' W 081°53'6 6.3
2016-Apr-30 17:33N 26°33' W 081°56'6 6.1
2016-Apr-30 16:33N 26°30' W 082°02'6 5.5
2016-Apr-30 15:33N 26°30' W 082°08'6 5.8
2016-Apr-30 14:33N 26°35' W 082°11'6 5.8
2016-Apr-30 13:33N 26°40' W 082°13'3 2.6
2016-Apr-30 12:33N 26°43' W 082°14'59 4.7
2016-Apr-30 00:06N 27°37' W 082°40'7 4.1
2016-Apr-29 22:31N 27°43' W 082°37'6 5.8
2016-Apr-29 21:33N 27°48' W 082°34'6 5.6
2016-Apr-29 20:33N 27°53' W 082°32'0 0.4
2016-Apr-29 19:33N 27°53' W 082°32'0 0.3
2016-Apr-29 18:33N 27°53' W 082°32'7 7.4
2016-Apr-29 17:33N 27°46' W 082°36'8 6.8
2016-Apr-29 16:25N 27°39' W 082°34'15 4.8
2016-Apr-29 13:15N 27°26' W 082°43'11 6.0
2016-Apr-29 11:25N 27°37' W 082°40'5 6.1
2016-Apr-29 10:33N 27°39' W 082°34'1 1.3
2016-Apr-29 09:33N 27°39' W 082°35'  
2016-Apr-27 02:13N 28°19' W 082°56'43 6.5
2016-Apr-26 19:33N 27°39' W 082°37'2 2.2
2016-Apr-26 18:33N 27°39' W 082°34'  
2016-Apr-24 12:16N 27°39' W 082°36'2 1.8
2016-Apr-24 11:10N 27°38' W 082°34'  

Dump ship's entire track history